< Typhoon 200013 2000 Season Typhoon 200015 >
Typhoon 200014 (SAOMAI)
General InformationTrack Information on Google MapsDetailed Wind InformationList of All Images || NewsDisaster Info.ResourceGoogle EarthGE AnimationAtom FeedGeoJSON
Detalied Best Track (Time Zone = UTC)
Year Month Day Hour Lat. Long. Pressure (hPa) Wind (kt) Class Image Chart
2000 8 31 18 13.5 156.9 1008 0 2 Image Chart
2000 9 1 00 14.2 157.0 1008 0 2 Image Chart
2000 9 1 06 14.8 157.0 1006 0 2 Image Chart
2000 9 1 12 15.5 157.1 1008 0 2 Image Chart
2000 9 1 18 15.9 157.2 1004 0 2 Image Chart
2000 9 2 00 16.1 157.4 1004 0 2 Image Chart
2000 9 2 06 16.3 157.1 1004 0 2 Image Chart
2000 9 2 12 16.1 156.3 1000 35 3 Image Chart
2000 9 2 18 16.0 155.5 996 40 3 Image Chart
2000 9 3 00 15.9 154.9 992 40 3 Image Chart
2000 9 3 06 15.9 154.2 990 45 3 Image Chart
2000 9 3 12 15.9 153.4 985 50 4 Image Chart
2000 9 3 18 15.9 152.6 980 55 4 Image Chart
2000 9 4 00 16.0 151.7 980 60 4 Image Chart
2000 9 4 06 16.1 150.7 975 65 5 Image Chart
2000 9 4 12 16.2 149.9 975 65 5 Image Chart
2000 9 4 18 16.1 149.0 975 65 5 Image Chart
2000 9 5 00 16.0 148.0 975 65 5 Image Chart
2000 9 5 06 15.9 148.0 980 55 4 Image Chart
2000 9 5 12 15.0 148.0 985 50 4 Image Chart
2000 9 5 18 14.2 148.0 985 50 4 Image Chart
2000 9 6 00 13.6 148.0 985 50 4 Image Chart
2000 9 6 06 13.6 147.4 985 50 4 Image Chart
2000 9 6 12 13.9 147.1 985 50 4 Image Chart
2000 9 6 18 14.2 146.9 985 50 4 Image Chart
2000 9 7 00 15.8 145.7 985 50 4 Image Chart
2000 9 7 06 16.4 144.7 985 50 4 Image Chart
2000 9 7 12 16.9 143.5 985 50 4 Image Chart
2000 9 7 18 17.5 142.0 985 50 4 Image Chart
2000 9 8 00 18.3 140.9 980 55 4 Image Chart
2000 9 8 06 19.1 140.4 980 55 4 Image Chart
2000 9 8 12 19.7 139.7 980 55 4 Image Chart
2000 9 8 18 20.4 138.4 975 60 4 Image Chart
2000 9 9 00 21.1 137.4 965 70 5 Image Chart
2000 9 9 06 21.7 136.8 955 75 5 Image Chart
2000 9 9 12 22.5 136.1 945 80 5 Image Chart
2000 9 9 18 23.3 135.2 935 90 5 Image Chart
2000 9 10 00 23.9 134.1 930 90 5 Image Chart
2000 9 10 03 24.2 133.5 930 90 5 Image Chart
2000 9 10 06 24.3 133.0 930 90 5 Image Chart
2000 9 10 09 24.2 132.5 930 90 5 Image Chart
2000 9 10 12 24.3 132.4 925 95 5 Image Chart
2000 9 10 15 24.4 132.2 925 95 5 Image Chart
2000 9 10 18 24.4 132.0 925 95 5 Image Chart
2000 9 10 21 24.6 131.8 925 95 5 Image Chart
2000 9 11 00 24.9 131.5 925 95 5 Image Chart
2000 9 11 03 25.2 131.1 930 90 5 Image Chart
2000 9 11 06 25.4 130.8 930 90 5 Image Chart
2000 9 11 09 25.5 130.5 930 90 5 Image Chart
2000 9 11 12 25.5 130.4 935 90 5 Image Chart
2000 9 11 15 25.7 129.8 935 90 5 Image Chart
2000 9 11 18 25.8 129.5 940 85 5 Image Chart
2000 9 11 21 25.9 129.2 940 85 5 Image Chart
2000 9 12 00 26.1 128.9 940 85 5 Image Chart
2000 9 12 03 26.2 128.5 945 80 5 Image Chart
2000 9 12 06 26.3 128.2 945 75 5 Image Chart
2000 9 12 09 26.5 128.1 945 75 5 Image Chart
2000 9 12 10 26.5 128.0 945 75 5 Image Chart
2000 9 12 12 26.7 127.8 945 75 5 Image Chart
2000 9 12 15 26.8 127.4 950 75 5 Image Chart
2000 9 12 18 27.0 127.0 950 75 5 Image Chart
2000 9 12 21 27.2 126.7 950 75 5 Image Chart
2000 9 13 00 27.4 126.5 950 75 5 Image Chart
2000 9 13 03 27.6 126.2 955 70 5 Image Chart
2000 9 13 06 27.8 125.9 960 70 5 Image Chart
2000 9 13 09 27.9 125.5 960 70 5 Image Chart
2000 9 13 12 27.9 125.2 955 70 5 Image Chart
2000 9 13 18 27.9 124.6 955 70 5 Image Chart
2000 9 14 00 28.0 124.4 955 70 5 Image Chart
2000 9 14 06 28.2 124.2 955 70 5 Image Chart
2000 9 14 12 28.4 124.2 960 70 5 Image Chart
2000 9 14 18 28.6 124.4 960 70 5 Image Chart
2000 9 15 00 29.1 125.3 965 65 5 Image Chart
2000 9 15 03 29.6 125.8 965 65 5 Image Chart
2000 9 15 06 30.1 126.3 965 65 5 Image Chart
2000 9 15 09 30.8 127.0 965 65 5 Image Chart
2000 9 15 12 31.6 127.6 970 60 4 Image Chart
2000 9 15 15 32.8 127.9 970 60 4 Image Chart
2000 9 15 18 34.0 128.1 970 60 4 Image Chart
2000 9 15 21 35.2 128.4 970 55 4 Image Chart
2000 9 16 00 36.7 129.0 980 50 4 Image Chart
2000 9 16 06 39.5 129.5 982 0 6 Image Chart
2000 9 16 12 40.1 130.5 986 0 6 Image Chart
2000 9 16 18 42.0 131.4 988 0 6 Image Chart
2000 9 17 00 42.7 131.6 990 0 6 Image Chart
2000 9 17 06 44.7 133.0 990 0 6 Image Chart
2000 9 17 12 46.5 135.1 992 0 6 Image Chart
2000 9 17 18 47.0 136.2 994 0 6 Image Chart
2000 9 18 00 47.5 137.2 996 0 6 Image Chart
2000 9 18 06 47.5 138.7 998 0 6 Image Chart
2000 9 18 12 47.6 140.7 1004 0 6 Image Chart
2000 9 18 18 47.5 141.6 1008 0 6 Image Chart
2000 9 19 00 47.4 142.2 1012 0 6 Image Chart
Japan Meteorological Agency Best Track Data | Correction Date : 2001-12-21
< Typhoon 200013 2000 Season Typhoon 200015 >

Help